Time;durP1;ratioP1;P1;durP2;ratioP2;P2;SDS_P1;SDS_P2;PMS_P1;PMS_P2;Temp;Humidity;BMP_temperature;BMP_pressure;BME280_temperature;BME280_humidity;BME280_pressure;Samples;Min_cycle;Max_cycle;Signal;HPM_P1;HPM_P2
2022/10/15 00:02:24;;;;;;;2.13;1.17;;;;;;;14.19;100.00;95726.53;5043091;28;20734;-72
2022/10/15 00:04:50;;;;;;;3.30;1.10;;;;;;;14.16;100.00;95710.25;5042345;28;21103;-72
2022/10/15 00:07:18;;;;;;;3.28;1.30;;;;;;;14.25;100.00;95708.97;5043317;28;20743;-72
2022/10/15 00:09:44;;;;;;;1.65;1.20;;;;;;;14.20;100.00;95714.88;5044119;28;20201;-72
2022/10/15 00:12:11;;;;;;;1.95;1.40;;;;;;;14.18;100.00;95701.06;5044639;28;20596;-72
2022/10/15 00:14:38;;;;;;;2.30;1.40;;;;;;;14.20;100.00;95708.78;5043048;28;20221;-71
2022/10/15 00:17:04;;;;;;;2.17;1.30;;;;;;;14.23;100.00;95697.75;5042263;28;20213;-71
2022/10/15 00:19:31;;;;;;;2.20;0.98;;;;;;;14.23;100.00;95703.06;5042528;28;20669;-71
2022/10/15 00:21:57;;;;;;;2.35;1.30;;;;;;;14.21;100.00;95705.13;5043572;28;20240;-71
2022/10/15 00:24:25;;;;;;;1.90;1.30;;;;;;;14.24;100.00;95705.53;5042928;28;20201;-71
2022/10/15 00:26:52;;;;;;;1.25;1.00;;;;;;;14.18;100.00;95705.56;5044091;28;20231;-71
2022/10/15 00:29:18;;;;;;;5.63;1.38;;;;;;;14.21;100.00;95707.78;5043957;28;20215;-71
2022/10/15 00:31:45;;;;;;;1.38;1.02;;;;;;;14.20;100.00;95700.84;5043820;28;20235;-71
2022/10/15 00:34:11;;;;;;;2.03;1.17;;;;;;;14.23;100.00;95703.88;5040916;28;20232;-71
2022/10/15 00:36:38;;;;;;;1.70;1.35;;;;;;;14.27;100.00;95699.78;5042053;28;20874;-71
2022/10/15 00:39:06;;;;;;;1.95;1.40;;;;;;;14.20;100.00;95692.88;5041886;28;20208;-71
2022/10/15 00:41:37;;;;;;;4.28;1.60;;;;;;;14.27;100.00;95698.97;5041853;28;20229;-71
2022/10/15 00:44:44;;;;;;;2.92;1.52;;;;;;;14.37;100.00;95694.84;5040923;28;20215;-71
2022/10/15 00:47:16;;;;;;;2.75;1.58;;;;;;;14.35;100.00;95694.22;5034843;28;20212;-71
2022/10/15 00:49:47;;;;;;;1.65;1.20;;;;;;;14.37;100.00;95691.34;5043283;28;20306;-71
2022/10/15 00:52:17;;;;;;;1.83;1.30;;;;;;;14.29;100.00;95686.31;5043429;28;20221;-71
2022/10/15 00:54:48;;;;;;;8.63;1.45;;;;;;;14.23;100.00;95687.16;5043377;28;20584;-71
2022/10/15 00:57:16;;;;;;;2.13;1.38;;;;;;;14.33;100.00;95693.66;5043350;28;20216;-71
2022/10/15 00:59:47;;;;;;;1.60;1.38;;;;;;;14.37;100.00;95678.94;5043419;28;20207;-71
2022/10/15 01:02:14;;;;;;;1.42;1.10;;;;;;;14.30;100.00;95687.94;5043363;28;20228;-71
2022/10/15 01:04:42;;;;;;;3.38;1.30;;;;;;;14.31;100.00;95690.38;5043208;28;20208;-71
2022/10/15 01:07:08;;;;;;;2.38;1.05;;;;;;;14.28;100.00;95680.22;5043794;28;20283;-71
2022/10/15 01:09:35;;;;;;;1.58;1.10;;;;;;;14.37;100.00;95683.41;5043411;28;20204;-71
2022/10/15 01:12:02;;;;;;;4.72;1.38;;;;;;;14.40;100.00;95672.41;5043414;28;20229;-71
2022/10/15 01:14:39;;;;;;;5.03;1.35;;;;;;;14.42;100.00;95678.28;5042793;28;20228;-71
2022/10/15 01:17:16;;;;;;;5.28;1.27;;;;;;;14.43;100.00;95670.09;5043392;28;20201;-71
2022/10/15 01:20:05;;;;;;;2.70;1.48;;;;;;;14.44;100.00;95670.94;5043299;28;20201;-71
2022/10/15 01:22:46;;;;;;;2.05;1.23;;;;;;;14.45;100.00;95667.28;5042461;28;20594;-71
2022/10/15 01:25:29;;;;;;;6.57;1.40;;;;;;;14.49;100.00;95666.63;5043493;28;20201;-71
2022/10/15 01:28:03;;;;;;;3.60;1.67;;;;;;;14.47;100.00;95657.25;5043167;28;20205;-71
2022/10/15 01:30:35;;;;;;;7.25;1.80;;;;;;;14.44;100.00;95652.38;5046827;28;20209;-71
2022/10/15 01:33:26;;;;;;;3.17;1.10;;;;;;;14.45;100.00;95656.66;5047577;28;20209;-72
2022/10/15 01:35:58;;;;;;;2.38;0.98;;;;;;;14.52;100.00;95654.75;5047737;28;20205;-72
2022/10/15 01:38:44;;;;;;;1.83;1.13;;;;;;;14.53;100.00;95651.91;5047442;28;21089;-72
2022/10/15 01:41:13;;;;;;;2.30;1.00;;;;;;;14.44;100.00;95641.78;5048165;28;20307;-72
2022/10/15 01:43:50;;;;;;;1.13;0.90;;;;;;;14.54;100.00;95642.13;5048470;28;20201;-72
2022/10/15 01:46:24;;;;;;;1.73;0.90;;;;;;;14.50;100.00;95638.25;5047550;28;20207;-72
2022/10/15 01:48:54;;;;;;;1.00;0.88;;;;;;;14.45;100.00;95636.25;5045818;28;20213;-72
2022/10/15 01:51:24;;;;;;;3.17;0.90;;;;;;;14.54;100.00;95628.88;5047060;28;20231;-72
2022/10/15 01:53:52;;;;;;;2.58;0.85;;;;;;;14.51;100.00;95631.94;5047223;28;20205;-72
2022/10/15 01:56:22;;;;;;;0.90;0.80;;;;;;;14.45;100.00;95628.31;5045827;28;20746;-72
2022/10/15 01:58:51;;;;;;;1.42;1.00;;;;;;;14.51;100.00;95621.31;5046879;28;20212;-72
2022/10/15 02:01:19;;;;;;;1.10;0.70;;;;;;;14.54;100.00;95620.91;5046856;28;20231;-72
2022/10/15 02:03:46;;;;;;;2.08;0.70;;;;;;;14.49;100.00;95628.69;5046258;28;20201;-72
2022/10/15 02:06:19;;;;;;;3.72;0.63;;;;;;;14.57;100.00;95615.97;5046303;28;20216;-72
2022/10/15 02:08:56;;;;;;;2.15;0.70;;;;;;;14.55;100.00;95612.75;5047061;28;20201;-72
2022/10/15 02:11:22;;;;;;;0.52;0.52;;;;;;;14.53;100.00;95613.97;5046748;28;20229;-72
2022/10/15 02:13:58;;;;;;;1.73;0.60;;;;;;;14.59;100.00;95613.09;5045884;28;20569;-72
2022/10/15 02:16:31;;;;;;;1.20;0.70;;;;;;;14.63;100.00;95615.13;5046390;28;20205;-72
2022/10/15 02:19:04;;;;;;;1.38;0.68;;;;;;;14.63;100.00;95616.97;5046821;28;20216;-72
2022/10/15 02:21:35;;;;;;;1.75;0.63;;;;;;;14.53;100.00;95608.69;5046702;28;20229;-72
2022/10/15 02:24:07;;;;;;;0.70;0.70;;;;;;;14.56;100.00;95617.03;5046160;28;20197;-72
2022/10/15 02:26:35;;;;;;;1.67;0.73;;;;;;;14.53;100.00;95616.63;5046633;28;20306;-72
2022/10/15 02:29:03;;;;;;;1.00;0.50;;;;;;;14.58;100.00;95622.09;5047049;28;20216;-72
2022/10/15 02:31:33;;;;;;;3.33;0.70;;;;;;;14.70;100.00;95627.28;5047052;28;20235;-72
2022/10/15 02:34:04;;;;;;;0.82;0.50;;;;;;;14.67;100.00;95616.31;5045298;28;20693;-72
2022/10/15 02:36:32;;;;;;;3.08;0.60;;;;;;;14.65;100.00;95613.06;5046681;28;20201;-72
2022/10/15 02:39:01;;;;;;;0.60;0.60;;;;;;;14.66;100.00;95612.84;5046438;28;20240;-72
2022/10/15 02:41:28;;;;;;;1.08;0.70;;;;;;;14.65;100.00;95608.56;5046211;28;20247;-72
2022/10/15 02:43:55;;;;;;;0.80;0.60;;;;;;;14.59;100.00;95602.50;5045675;28;20201;-72
2022/10/15 02:46:21;;;;;;;0.98;0.60;;;;;;;14.62;100.00;95615.34;5046173;28;20692;-72
2022/10/15 02:48:54;;;;;;;1.27;0.90;;;;;;;14.76;100.00;95604.38;5046055;28;20209;-72
2022/10/15 02:51:21;;;;;;;2.00;0.60;;;;;;;14.68;100.00;95597.50;5044446;28;20223;-72
2022/10/15 02:53:47;;;;;;;0.63;0.63;;;;;;;14.70;100.00;95600.78;5045640;28;20205;-72
2022/10/15 02:56:14;;;;;;;0.80;0.70;;;;;;;14.67;100.00;95598.53;5045103;28;20561;-72
2022/10/15 02:58:41;;;;;;;0.88;0.70;;;;;;;14.80;100.00;95595.78;5045492;28;20213;-72
2022/10/15 03:01:08;;;;;;;0.50;0.50;;;;;;;14.74;100.00;95601.16;5045932;28;20221;-72
2022/10/15 03:03:34;;;;;;;0.80;0.60;;;;;;;14.79;100.00;95599.47;5044757;28;20209;-72
2022/10/15 03:06:02;;;;;;;2.42;0.50;;;;;;;14.84;100.00;95598.81;5045202;28;20208;-72
2022/10/15 03:08:29;;;;;;;1.90;0.50;;;;;;;14.79;100.00;95595.97;5046000;28;20198;-72
2022/10/15 03:10:55;;;;;;;1.67;0.70;;;;;;;14.79;100.00;95604.78;5045141;28;20815;-72
2022/10/15 03:13:22;;;;;;;1.23;0.57;;;;;;;14.80;100.00;95601.09;5045721;28;20212;-72
2022/10/15 03:15:48;;;;;;;1.23;0.47;;;;;;;14.83;100.00;95600.66;5046015;28;20236;-72
2022/10/15 03:18:15;;;;;;;0.60;0.45;;;;;;;14.86;100.00;95600.22;5045644;28;20206;-72
2022/10/15 03:20:41;;;;;;;1.38;0.70;;;;;;;14.88;100.00;95608.78;5045629;28;20205;-72
2022/10/15 03:23:09;;;;;;;0.57;0.57;;;;;;;14.96;100.00;95607.69;5045332;28;20201;-72
2022/10/15 03:25:36;;;;;;;1.50;0.60;;;;;;;14.90;100.00;95601.38;5045348;28;20216;-72
2022/10/15 03:28:03;;;;;;;1.98;0.60;;;;;;;14.95;100.00;95593.59;5043985;28;20735;-70
2022/10/15 03:30:29;;;;;;;1.95;0.50;;;;;;;14.97;100.00;95602.16;5043877;28;20677;-71
2022/10/15 03:32:56;;;;;;;1.08;0.63;;;;;;;15.01;100.00;95595.38;5042945;28;20768;-71
2022/10/15 03:35:22;;;;;;;1.02;0.70;;;;;;;14.97;100.00;95604.81;5043724;28;20229;-71
2022/10/15 03:37:49;;;;;;;1.08;0.65;;;;;;;15.07;100.00;95599.81;5044134;28;20205;-70
2022/10/15 03:40:17;;;;;;;0.88;0.55;;;;;;;15.13;100.00;95600.78;5043708;28;20208;-71
2022/10/15 03:42:44;;;;;;;0.60;0.50;;;;;;;15.02;100.00;95597.00;5042627;28;20235;-69
2022/10/15 03:45:11;;;;;;;0.60;0.60;;;;;;;15.10;100.00;95603.88;5043727;28;20220;-71
2022/10/15 03:47:37;;;;;;;0.47;0.47;;;;;;;15.08;100.00;95604.06;5043183;28;20212;-70
2022/10/15 03:50:04;;;;;;;1.42;0.50;;;;;;;15.17;100.00;95607.25;5043478;28;21306;-71
2022/10/15 03:52:31;;;;;;;1.85;0.50;;;;;;;15.09;100.00;95611.00;5042420;28;20224;-70
2022/10/15 03:54:58;;;;;;;0.57;0.50;;;;;;;15.13;100.00;95612.19;5043396;28;20228;-71
2022/10/15 03:57:25;;;;;;;0.65;0.65;;;;;;;15.15;100.00;95611.97;5042337;28;20251;-71
2022/10/15 03:59:52;;;;;;;0.40;0.40;;;;;;;15.11;100.00;95616.91;5043378;28;20209;-71
2022/10/15 04:02:18;;;;;;;0.38;0.38;;;;;;;15.16;100.00;95606.47;5042864;28;20221;-71
2022/10/15 04:04:45;;;;;;;3.08;0.50;;;;;;;15.17;100.00;95601.94;5043218;28;20201;-69
2022/10/15 04:07:12;;;;;;;0.60;0.50;;;;;;;15.08;100.00;95614.69;5043526;28;20207;-69
2022/10/15 04:09:38;;;;;;;1.52;0.65;;;;;;;15.08;100.00;95608.56;5042900;28;20197;-69
2022/10/15 04:12:05;;;;;;;4.32;1.02;;;;;;;15.10;100.00;95615.28;5043060;28;20229;-71
2022/10/15 04:14:33;;;;;;;0.40;0.40;;;;;;;15.15;100.00;95610.13;5042489;28;20201;-69
2022/10/15 04:17:00;;;;;;;0.85;0.63;;;;;;;15.14;100.00;95613.81;5043244;28;20212;-70
2022/10/15 04:19:26;;;;;;;0.60;0.60;;;;;;;15.11;100.00;95619.56;5042940;28;20259;-70
2022/10/15 04:21:53;;;;;;;1.08;0.50;;;;;;;15.21;100.00;95624.41;5042997;28;20224;-71
2022/10/15 04:24:20;;;;;;;1.98;0.75;;;;;;;15.22;100.00;95634.78;5042195;28;20765;-70
2022/10/15 04:26:46;;;;;;;0.38;0.38;;;;;;;15.22;100.00;95626.81;5042995;28;20206;-69
2022/10/15 04:29:13;;;;;;;1.83;0.65;;;;;;;15.20;100.00;95628.88;5042876;28;20299;-69
2022/10/15 04:31:41;;;;;;;0.57;0.50;;;;;;;15.25;100.00;95637.03;5042607;28;20220;-71
2022/10/15 04:34:08;;;;;;;0.60;0.50;;;;;;;15.25;100.00;95640.47;5041998;28;20220;-71
2022/10/15 04:36:35;;;;;;;0.40;0.40;;;;;;;15.29;100.00;95643.50;5042585;28;20735;-71
2022/10/15 04:39:02;;;;;;;0.75;0.63;;;;;;;15.30;100.00;95650.44;5042955;28;20306;-71
2022/10/15 04:41:29;;;;;;;0.70;0.63;;;;;;;15.24;100.00;95642.56;5042366;28;20223;-71
2022/10/15 04:43:56;;;;;;;0.40;0.40;;;;;;;15.26;100.00;95649.25;5042306;28;20240;-71
2022/10/15 04:46:22;;;;;;;0.30;0.30;;;;;;;15.24;100.00;95651.31;5042797;28;20207;-71
2022/10/15 04:48:51;;;;;;;0.70;0.50;;;;;;;15.31;100.00;95658.19;5042234;28;21119;-70
2022/10/15 04:51:20;;;;;;;2.05;0.57;;;;;;;15.30;100.00;95667.19;5042394;28;20332;-69
2022/10/15 04:53:47;;;;;;;0.75;0.68;;;;;;;15.32;100.00;95670.44;5041764;28;20205;-71
2022/10/15 04:56:16;;;;;;;0.60;0.50;;;;;;;15.38;100.00;95669.53;5042429;28;20221;-71
2022/10/15 04:58:44;;;;;;;0.75;0.43;;;;;;;15.36;100.00;95657.50;5042329;28;20295;-71
2022/10/15 05:01:13;;;;;;;0.60;0.60;;;;;;;15.40;100.00;95670.16;5042453;28;20287;-70
2022/10/15 05:03:41;;;;;;;0.88;0.60;;;;;;;15.34;100.00;95676.31;5043871;28;20284;-70
2022/10/15 05:06:12;;;;;;;3.35;0.75;;;;;;;15.38;100.00;95674.84;5046183;28;20359;-70
2022/10/15 05:08:40;;;;;;;1.95;0.60;;;;;;;15.33;100.00;95674.69;5046164;28;20208;-70
2022/10/15 05:11:10;;;;;;;0.60;0.55;;;;;;;15.30;100.00;95677.00;5046271;28;20232;-70
2022/10/15 05:13:36;;;;;;;1.00;0.57;;;;;;;15.28;100.00;95679.03;5045951;28;20216;-68
2022/10/15 05:16:10;;;;;;;0.70;0.55;;;;;;;15.39;100.00;95670.38;5046549;28;20225;-71
2022/10/15 05:18:37;;;;;;;0.85;0.80;;;;;;;15.37;100.00;95678.53;5046295;28;20205;-69
2022/10/15 05:21:04;;;;;;;2.90;1.35;;;;;;;15.34;100.00;95683.50;5046392;28;20316;-70
2022/10/15 05:23:32;;;;;;;1.45;0.65;;;;;;;15.48;100.00;95682.31;5045504;28;20577;-71
2022/10/15 05:25:59;;;;;;;4.30;0.90;;;;;;;15.50;100.00;95690.88;5046295;28;20201;-71
2022/10/15 05:28:26;;;;;;;0.63;0.30;;;;;;;15.39;100.00;95683.66;5046534;28;20721;-71
2022/10/15 05:30:53;;;;;;;0.50;0.50;;;;;;;15.49;100.00;95690.06;5046000;28;20851;-70
2022/10/15 05:33:19;;;;;;;0.50;0.50;;;;;;;15.50;100.00;95694.34;5045185;28;20209;-71
2022/10/15 05:35:46;;;;;;;1.00;0.60;;;;;;;15.49;100.00;95697.19;5045943;28;20221;-69
2022/10/15 05:38:12;;;;;;;0.40;0.40;;;;;;;15.52;100.00;95699.44;5045583;28;20209;-71
2022/10/15 05:40:40;;;;;;;8.75;0.70;;;;;;;15.57;100.00;95696.94;5045946;28;20224;-70
2022/10/15 05:43:07;;;;;;;0.43;0.40;;;;;;;15.44;100.00;95697.03;5045505;28;20684;-72
2022/10/15 05:45:33;;;;;;;0.40;0.40;;;;;;;15.44;100.00;95699.69;5045636;28;20207;-72
2022/10/15 05:48:00;;;;;;;0.60;0.40;;;;;;;15.43;100.00;95700.75;5045919;28;20696;-72
2022/10/15 05:50:26;;;;;;;0.80;0.70;;;;;;;15.43;100.00;95703.41;5046953;28;20207;-71
2022/10/15 05:52:54;;;;;;;2.72;0.70;;;;;;;15.55;100.00;95699.00;5046662;28;20216;-71
2022/10/15 05:55:21;;;;;;;0.90;0.70;;;;;;;15.58;100.00;95701.19;5047398;28;21030;-71
2022/10/15 05:57:49;;;;;;;10.13;4.82;;;;;;;15.58;100.00;95701.19;5046802;28;20209;-71
2022/10/15 06:00:17;;;;;;;0.98;0.90;;;;;;;15.58;100.00;95712.66;5047374;28;20213;-71
2022/10/15 06:02:43;;;;;;;2.38;1.80;;;;;;;15.51;100.00;95714.53;5045565;28;20600;-71
2022/10/15 06:05:10;;;;;;;3.40;2.20;;;;;;;15.58;100.00;95720.63;5046546;28;20201;-71
2022/10/15 06:07:37;;;;;;;2.67;0.80;;;;;;;15.54;100.00;95715.94;5039994;28;20215;-71
2022/10/15 06:10:04;;;;;;;1.10;0.77;;;;;;;15.63;100.00;95717.28;5039391;28;20224;-70
2022/10/15 06:12:30;;;;;;;1.40;0.50;;;;;;;15.57;100.00;95712.88;5038248;28;20224;-71
2022/10/15 06:14:58;;;;;;;1.30;1.00;;;;;;;15.63;100.00;95719.94;5039120;28;20205;-71
2022/10/15 06:17:25;;;;;;;1.40;0.90;;;;;;;15.60;100.00;95723.03;5039262;28;20618;-71
2022/10/15 06:19:51;;;;;;;1.00;0.77;;;;;;;15.70;100.00;95723.34;5039178;28;20291;-71
2022/10/15 06:22:18;;;;;;;0.63;0.50;;;;;;;15.62;100.00;95734.28;5038995;28;20238;-71
2022/10/15 06:24:44;;;;;;;0.60;0.60;;;;;;;15.65;100.00;95728.50;5039169;28;20206;-72
2022/10/15 06:27:12;;;;;;;1.85;1.20;;;;;;;15.77;100.00;95734.72;5039292;28;20658;-71
2022/10/15 06:29:39;;;;;;;2.55;1.48;;;;;;;15.74;100.00;95738.63;5038959;28;20204;-70
2022/10/15 06:32:09;;;;;;;0.85;0.70;;;;;;;15.83;100.00;95747.13;5038390;28;20240;-71
2022/10/15 06:34:35;;;;;;;0.90;0.73;;;;;;;15.68;100.00;95747.50;5038167;28;20220;-71
2022/10/15 06:37:02;;;;;;;1.05;0.70;;;;;;;15.74;100.00;95753.75;5039115;28;20229;-71
2022/10/15 06:39:28;;;;;;;0.93;0.70;;;;;;;15.77;100.00;95763.94;5038475;28;20202;-71
2022/10/15 06:41:55;;;;;;;1.15;0.70;;;;;;;15.79;100.00;95767.19;5038789;28;20228;-71
2022/10/15 06:44:21;;;;;;;3.50;0.88;;;;;;;15.83;100.00;95768.38;5038522;28;20216;-71
2022/10/15 06:46:48;;;;;;;1.50;1.20;;;;;;;15.82;100.00;95772.06;5038410;28;20205;-71
2022/10/15 06:49:16;;;;;;;4.28;1.38;;;;;;;15.84;100.00;95770.00;5038594;28;20556;-71
2022/10/15 06:51:42;;;;;;;0.60;0.60;;;;;;;15.76;100.00;95783.56;5038555;28;20232;-71
2022/10/15 06:54:09;;;;;;;0.82;0.80;;;;;;;15.84;100.00;95787.56;5037842;28;20247;-72
2022/10/15 06:56:36;;;;;;;1.30;0.90;;;;;;;15.83;100.00;95785.13;5038273;28;20232;-72
2022/10/15 06:59:02;;;;;;;2.28;1.00;;;;;;;15.83;100.00;95792.28;5036344;28;20224;-73
2022/10/15 07:01:29;;;;;;;1.40;0.98;;;;;;;15.82;100.00;95802.09;5037928;28;20225;-72
2022/10/15 07:03:55;;;;;;;0.60;0.50;;;;;;;15.83;100.00;95810.88;5037108;28;20205;-72
2022/10/15 07:06:24;;;;;;;1.55;1.20;;;;;;;15.99;100.00;95809.28;5037616;28;20204;-73
2022/10/15 07:08:50;;;;;;;1.02;0.60;;;;;;;15.86;100.00;95812.06;5037068;28;20201;-71
2022/10/15 07:11:17;;;;;;;1.02;0.60;;;;;;;15.85;100.00;95810.44;5035472;28;21096;-71
2022/10/15 07:13:44;;;;;;;1.02;0.80;;;;;;;15.87;100.00;95813.72;5035462;28;20221;-72
2022/10/15 07:16:12;;;;;;;3.42;0.75;;;;;;;15.99;100.00;95811.13;5038096;28;20221;-72
2022/10/15 07:18:39;;;;;;;1.50;1.00;;;;;;;15.99;100.00;95813.78;5036544;28;20201;-73
2022/10/15 07:21:07;;;;;;;0.98;0.68;;;;;;;16.05;100.00;95823.53;5035882;28;20225;-71
2022/10/15 07:23:35;;;;;;;0.77;0.70;;;;;;;16.14;100.00;95820.38;5035530;28;20205;-74
2022/10/15 07:26:02;;;;;;;0.40;0.40;;;;;;;16.09;100.00;95820.22;5036962;28;20292;-73
2022/10/15 07:28:28;;;;;;;2.50;0.60;;;;;;;16.01;100.00;95822.34;5037249;28;20209;-74
2022/10/15 07:30:55;;;;;;;1.25;0.90;;;;;;;16.09;100.00;95830.84;5037628;28;20220;-75
2022/10/15 07:33:21;;;;;;;0.68;0.50;;;;;;;16.03;100.00;95830.91;5037389;28;20200;-74
2022/10/15 07:35:48;;;;;;;1.25;0.70;;;;;;;16.16;100.00;95833.44;5037196;28;20713;-74
2022/10/15 07:38:15;;;;;;;2.70;1.67;;;;;;;16.12;100.00;95848.22;5037565;28;20205;-74
2022/10/15 07:40:43;;;;;;;0.45;0.38;;;;;;;16.20;100.00;95842.59;5037490;28;20625;-73
2022/10/15 07:43:10;;;;;;;0.73;0.60;;;;;;;16.18;100.00;95848.13;5035920;28;20201;-73
2022/10/15 07:45:36;;;;;;;1.85;0.70;;;;;;;16.23;100.00;95866.06;5036706;28;20217;-74
2022/10/15 07:48:03;;;;;;;0.90;0.77;;;;;;;16.20;100.00;95851.38;5037293;28;20216;-73
2022/10/15 07:50:30;;;;;;;0.68;0.57;;;;;;;16.22;100.00;95856.50;5036975;28;20228;-73
2022/10/15 07:52:56;;;;;;;0.90;0.63;;;;;;;16.22;100.00;95862.63;5036029;28;20406;-72
2022/10/15 07:55:23;;;;;;;0.60;0.52;;;;;;;16.30;100.00;95857.03;5036795;28;20216;-73
2022/10/15 07:57:51;;;;;;;4.20;1.35;;;;;;;16.32;100.00;95859.47;5036214;28;20217;-73
2022/10/15 08:00:17;;;;;;;0.82;0.55;;;;;;;16.33;100.00;95861.09;5036432;28;20201;-73
2022/10/15 08:02:44;;;;;;;1.60;1.10;;;;;;;16.33;100.00;95861.94;5035068;28;20225;-73
2022/10/15 08:05:10;;;;;;;1.25;0.98;;;;;;;16.29;100.00;95865.22;5036643;28;20609;-73
2022/10/15 08:07:37;;;;;;;1.05;0.95;;;;;;;16.48;100.00;95867.66;5036141;28;20945;-73
2022/10/15 08:10:05;;;;;;;1.77;1.05;;;;;;;16.43;100.00;95862.19;5036728;28;20208;-73
2022/10/15 08:12:31;;;;;;;2.03;1.50;;;;;;;16.53;100.00;95862.50;5035749;28;21174;-73
2022/10/15 08:14:59;;;;;;;4.95;1.63;;;;;;;16.64;100.00;95865.22;5036460;28;20197;-73
2022/10/15 08:17:26;;;;;;;1.00;0.82;;;;;;;16.64;100.00;95880.38;5036464;28;20705;-74
2022/10/15 08:19:52;;;;;;;1.83;0.70;;;;;;;16.66;100.00;95872.97;5035340;28;20208;-73
2022/10/15 08:22:19;;;;;;;0.80;0.80;;;;;;;16.62;100.00;95867.31;5034718;28;20279;-72
2022/10/15 08:24:46;;;;;;;1.35;0.70;;;;;;;16.61;100.00;95868.34;5035128;28;20208;-73
2022/10/15 08:27:13;;;;;;;1.08;0.70;;;;;;;16.76;100.00;95871.44;5036587;28;20207;-73
2022/10/15 08:29:39;;;;;;;1.92;0.90;;;;;;;16.61;100.00;95873.66;5036285;28;20916;-73
2022/10/15 08:32:07;;;;;;;0.43;0.40;;;;;;;16.68;100.00;95876.25;5035712;28;20221;-73
2022/10/15 08:34:33;;;;;;;1.63;1.15;;;;;;;16.57;100.00;95885.78;5035515;28;20212;-73
2022/10/15 08:37:00;;;;;;;4.03;0.70;;;;;;;16.52;100.00;95887.47;5034460;28;20225;-72
2022/10/15 08:39:27;;;;;;;1.20;0.60;;;;;;;16.47;100.00;95882.03;5035163;28;20208;-73
2022/10/15 08:41:56;;;;;;;3.05;1.00;;;;;;;16.49;100.00;95879.94;5036332;28;20298;-73
2022/10/15 08:44:26;;;;;;;2.55;0.70;;;;;;;16.59;100.00;95890.88;5034678;28;20201;-73
2022/10/15 08:46:56;;;;;;;1.55;0.93;;;;;;;16.54;100.00;95891.53;5035220;28;20208;-73
2022/10/15 08:49:33;;;;;;;7.68;0.70;;;;;;;16.59;100.00;95893.53;5036191;28;20217;-73
2022/10/15 08:52:10;;;;;;;3.35;0.90;;;;;;;16.68;100.00;95900.19;5035144;28;20225;-73
2022/10/15 08:54:37;;;;;;;0.70;0.52;;;;;;;16.56;100.00;95904.63;5035373;28;20210;-73
2022/10/15 08:57:14;;;;;;;2.63;1.20;;;;;;;16.68;100.00;95902.84;5036314;28;20225;-72
2022/10/15 08:59:47;;;;;;;2.15;1.08;;;;;;;16.72;100.00;95896.06;5036286;28;20208;-73
2022/10/15 09:02:19;;;;;;;1.55;0.82;;;;;;;16.76;100.00;95907.88;5035750;28;20304;-73
2022/10/15 09:04:53;;;;;;;1.38;1.00;;;;;;;16.84;100.00;95902.25;5036732;28;20204;-73
2022/10/15 09:07:27;;;;;;;4.18;1.05;;;;;;;16.91;100.00;95903.00;5035839;28;20197;-73
2022/10/15 09:09:57;;;;;;;2.13;0.75;;;;;;;16.94;100.00;95897.22;5037722;28;20201;-72
2022/10/15 09:12:41;;;;;;;2.38;0.90;;;;;;;16.89;100.00;95902.38;5035386;28;20229;-73
2022/10/15 09:15:12;;;;;;;7.88;1.50;;;;;;;17.01;100.00;95903.28;5036415;28;20200;-73
2022/10/15 09:17:41;;;;;;;4.05;1.05;;;;;;;17.23;100.00;95908.72;5035337;28;20304;-73
2022/10/15 09:20:15;;;;;;;7.32;0.98;;;;;;;17.52;100.00;95910.56;5036173;28;20204;-73
2022/10/15 09:22:42;;;;;;;3.25;1.13;;;;;;;17.49;100.00;95905.69;5035848;28;20216;-73
2022/10/15 09:25:15;;;;;;;2.00;1.10;;;;;;;17.71;100.00;95917.47;5036018;28;20213;-73
2022/10/15 09:27:42;;;;;;;1.00;0.60;;;;;;;17.60;100.00;95918.22;5036585;28;20209;-73
2022/10/15 09:30:24;;;;;;;1.02;0.73;;;;;;;17.62;100.00;95920.69;5036604;28;20286;-72
2022/10/15 09:32:58;;;;;;;0.73;0.60;;;;;;;17.57;100.00;95932.00;5035735;28;20225;-72
2022/10/15 09:35:30;;;;;;;0.60;0.50;;;;;;;17.64;100.00;95921.25;5036169;28;20212;-73
2022/10/15 09:38:05;;;;;;;2.08;1.00;;;;;;;17.79;100.00;95919.78;5036227;28;20252;-72
2022/10/15 09:40:44;;;;;;;2.15;0.80;;;;;;;17.80;100.00;95916.88;5035864;28;20209;-72
2022/10/15 09:43:12;;;;;;;3.10;0.95;;;;;;;17.79;100.00;95919.78;5035665;28;20205;-73
2022/10/15 09:45:39;;;;;;;1.35;0.60;;;;;;;17.82;100.00;95919.34;5037087;28;20212;-72
2022/10/15 09:48:15;;;;;;;3.33;0.80;;;;;;;17.97;100.00;95928.53;5035668;28;20216;-72
2022/10/15 09:50:49;;;;;;;0.70;0.60;;;;;;;17.92;100.00;95919.56;5037828;28;20197;-73
2022/10/15 09:53:20;;;;;;;1.45;0.90;;;;;;;18.18;100.00;95919.19;5039138;28;20209;-73
2022/10/15 09:55:51;;;;;;;1.67;0.73;;;;;;;17.94;100.00;95928.16;5039579;28;20216;-73
2022/10/15 09:58:23;;;;;;;0.43;0.43;;;;;;;18.23;100.00;95927.28;5039711;28;20237;-73
2022/10/15 10:01:01;;;;;;;1.40;0.80;;;;;;;18.39;100.00;95925.56;5039301;28;20225;-72
2022/10/15 10:03:30;;;;;;;4.15;2.00;;;;;;;18.12;100.00;95926.22;5039394;28;20209;-73
2022/10/15 10:06:03;;;;;;;1.10;0.65;;;;;;;18.16;100.00;95915.91;5039347;28;20243;-73
2022/10/15 10:08:35;;;;;;;2.05;0.73;;;;;;;18.31;100.00;95924.31;5038847;28;20740;-73
2022/10/15 10:11:04;;;;;;;2.03;0.68;;;;;;;18.17;100.00;95929.03;5039362;28;20717;-73
2022/10/15 10:13:33;;;;;;;7.47;0.90;;;;;;;18.49;100.00;95930.31;5038216;28;20208;-73
2022/10/15 10:16:04;;;;;;;0.80;0.60;;;;;;;18.50;100.00;95935.41;5039091;28;20205;-73
2022/10/15 10:18:32;;;;;;;1.50;0.57;;;;;;;18.46;100.00;95934.25;5039379;28;20235;-73
2022/10/15 10:21:02;;;;;;;1.35;0.80;;;;;;;18.52;100.00;95936.00;5039211;28;20227;-73
2022/10/15 10:23:33;;;;;;;3.70;1.20;;;;;;;18.56;100.00;95937.16;5046570;28;20689;-73
2022/10/15 10:26:01;;;;;;;1.25;0.70;;;;;;;18.55;100.00;95938.22;5050045;28;20202;-73
2022/10/15 10:28:32;;;;;;;2.58;0.80;;;;;;;18.36;100.00;95938.56;5049661;28;20205;-73
2022/10/15 10:31:03;;;;;;;2.25;0.57;;;;;;;18.24;100.00;95936.91;5049761;28;20228;-73
2022/10/15 10:33:32;;;;;;;0.88;0.73;;;;;;;18.24;100.00;95936.91;5050530;28;20209;-73
2022/10/15 10:36:00;;;;;;;2.33;0.88;;;;;;;18.34;100.00;95937.97;5049972;28;20202;-73
2022/10/15 10:38:30;;;;;;;2.20;1.10;;;;;;;18.34;100.00;95936.13;5039108;28;20700;-73
2022/10/15 10:41:04;;;;;;;4.10;1.05;;;;;;;18.46;100.00;95938.81;5038633;28;21426;-73
2022/10/15 10:43:32;;;;;;;1.80;0.90;;;;;;;18.41;100.00;95936.81;5040800;28;20201;-73
2022/10/15 10:46:01;;;;;;;1.30;0.70;;;;;;;18.48;100.00;95937.53;5052454;28;20576;-73
2022/10/15 10:48:36;;;;;;;1.77;0.80;;;;;;;18.79;100.00;95939.81;5049378;28;20296;-73
2022/10/15 10:51:11;;;;;;;1.10;0.70;;;;;;;19.06;100.00;95939.09;5050159;28;20234;-73
2022/10/15 10:53:46;;;;;;;2.70;0.70;;;;;;;18.95;100.00;95939.06;5041176;28;20263;-73
2022/10/15 10:56:14;;;;;;;4.72;0.88;;;;;;;18.88;100.00;95940.28;5041470;28;20205;-73
2022/10/15 10:58:41;;;;;;;0.40;0.40;;;;;;;18.81;100.00;95943.03;5041679;28;20225;-73
2022/10/15 11:01:11;;;;;;;0.82;0.60;;;;;;;18.85;100.00;95944.22;5040753;28;20225;-73
2022/10/15 11:03:40;;;;;;;0.88;0.57;;;;;;;19.13;100.00;95954.97;5040421;28;20205;-73
2022/10/15 11:06:28;;;;;;;2.08;0.43;;;;;;;19.48;99.76;95956.50;5040886;28;20213;-73
2022/10/15 11:09:07;;;;;;;1.75;0.55;;;;;;;19.48;100.00;95943.13;5040835;28;21201;-73
2022/10/15 11:11:41;;;;;;;1.00;0.57;;;;;;;19.47;97.95;95948.72;5040906;28;20374;-73
2022/10/15 11:14:20;;;;;;;2.92;0.73;;;;;;;19.26;99.18;95957.41;5039987;28;20229;-73
2022/10/15 11:16:58;;;;;;;4.80;0.70;;;;;;;19.20;99.71;95951.13;5040266;28;20201;-73
2022/10/15 11:19:31;;;;;;;1.63;0.50;;;;;;;19.16;98.58;95957.19;5040167;28;20205;-73
2022/10/15 11:22:16;;;;;;;2.58;0.40;;;;;;;19.13;98.80;95957.66;5040416;28;20598;-73
2022/10/15 11:24:49;;;;;;;3.65;0.80;;;;;;;19.14;97.88;95949.44;5040360;28;20209;-73
2022/10/15 11:27:36;;;;;;;1.13;0.70;;;;;;;19.21;97.89;95965.31;5039481;28;20200;-73
2022/10/15 11:30:10;;;;;;;4.20;1.10;;;;;;;19.42;98.27;95951.31;5038505;28;20205;-73
2022/10/15 11:32:48;;;;;;;3.30;0.90;;;;;;;19.32;99.96;95961.78;5039407;28;21111;-73
2022/10/15 11:35:36;;;;;;;1.42;0.73;;;;;;;19.22;98.38;95956.22;5039759;28;20899;-73
2022/10/15 11:38:17;;;;;;;2.10;0.60;;;;;;;19.16;97.79;95949.19;5038736;28;20225;-73